sensor_id;sensor_type;location;lat;lon;timestamp;temperature;humidity
16521;DHT22;8373;48.110;11.522;2023-02-10T00:01:05;2.80;56.40
16521;DHT22;8373;48.110;11.522;2023-02-10T00:03:33;2.80;56.80
16521;DHT22;8373;48.110;11.522;2023-02-10T00:06:00;2.80;56.70
16521;DHT22;8373;48.110;11.522;2023-02-10T00:08:27;2.90;56.70
16521;DHT22;8373;48.110;11.522;2023-02-10T00:10:58;2.90;56.70
16521;DHT22;8373;48.110;11.522;2023-02-10T00:13:25;2.90;56.70
16521;DHT22;8373;48.110;11.522;2023-02-10T00:15:53;2.90;56.60
16521;DHT22;8373;48.110;11.522;2023-02-10T00:18:20;2.90;56.60
16521;DHT22;8373;48.110;11.522;2023-02-10T00:20:47;2.90;56.50
16521;DHT22;8373;48.110;11.522;2023-02-10T00:23:14;2.90;56.60
16521;DHT22;8373;48.110;11.522;2023-02-10T00:25:41;2.90;57.30
16521;DHT22;8373;48.110;11.522;2023-02-10T00:28:09;2.90;56.70
16521;DHT22;8373;48.110;11.522;2023-02-10T00:30:37;2.90;56.80
16521;DHT22;8373;48.110;11.522;2023-02-10T00:33:03;2.90;56.90
16521;DHT22;8373;48.110;11.522;2023-02-10T00:35:31;3.00;56.80
16521;DHT22;8373;48.110;11.522;2023-02-10T00:37:57;2.90;56.70
16521;DHT22;8373;48.110;11.522;2023-02-10T00:40:24;3.00;56.80
16521;DHT22;8373;48.110;11.522;2023-02-10T00:42:51;2.90;56.60
16521;DHT22;8373;48.110;11.522;2023-02-10T00:45:20;2.90;56.90
16521;DHT22;8373;48.110;11.522;2023-02-10T00:47:47;2.80;57.00
16521;DHT22;8373;48.110;11.522;2023-02-10T00:50:15;2.80;57.10
16521;DHT22;8373;48.110;11.522;2023-02-10T00:52:42;2.80;57.30
16521;DHT22;8373;48.110;11.522;2023-02-10T00:55:09;2.80;57.20
16521;DHT22;8373;48.110;11.522;2023-02-10T00:57:36;2.90;57.10
16521;DHT22;8373;48.110;11.522;2023-02-10T01:00:04;2.90;57.10
16521;DHT22;8373;48.110;11.522;2023-02-10T01:02:33;2.80;57.00
16521;DHT22;8373;48.110;11.522;2023-02-10T01:04:59;2.80;57.20
16521;DHT22;8373;48.110;11.522;2023-02-10T01:07:28;2.90;57.20
16521;DHT22;8373;48.110;11.522;2023-02-10T01:09:55;2.90;57.00
16521;DHT22;8373;48.110;11.522;2023-02-10T01:12:22;2.80;57.00
16521;DHT22;8373;48.110;11.522;2023-02-10T01:14:49;2.80;57.00
16521;DHT22;8373;48.110;11.522;2023-02-10T01:17:16;2.70;57.00
16521;DHT22;8373;48.110;11.522;2023-02-10T01:19:45;2.70;57.30
16521;DHT22;8373;48.110;11.522;2023-02-10T01:22:13;2.70;57.40
16521;DHT22;8373;48.110;11.522;2023-02-10T01:24:40;2.70;57.30
16521;DHT22;8373;48.110;11.522;2023-02-10T01:27:07;2.70;57.40
16521;DHT22;8373;48.110;11.522;2023-02-10T01:29:34;2.70;57.30
16521;DHT22;8373;48.110;11.522;2023-02-10T01:32:01;2.70;57.30
16521;DHT22;8373;48.110;11.522;2023-02-10T01:34:27;2.70;57.30
16521;DHT22;8373;48.110;11.522;2023-02-10T01:36:56;2.70;57.30
16521;DHT22;8373;48.110;11.522;2023-02-10T01:39:23;2.70;57.30
16521;DHT22;8373;48.110;11.522;2023-02-10T01:41:50;2.50;57.10
16521;DHT22;8373;48.110;11.522;2023-02-10T01:47:21;2.40;57.80
16521;DHT22;8373;48.110;11.522;2023-02-10T01:49:50;2.40;57.80
16521;DHT22;8373;48.110;11.522;2023-02-10T01:52:22;2.50;58.00
16521;DHT22;8373;48.110;11.522;2023-02-10T01:54:55;2.50;58.00
16521;DHT22;8373;48.110;11.522;2023-02-10T01:57:23;2.50;58.00
16521;DHT22;8373;48.110;11.522;2023-02-10T01:59:51;2.50;58.60
16521;DHT22;8373;48.110;11.522;2023-02-10T02:02:18;2.50;58.00
16521;DHT22;8373;48.110;11.522;2023-02-10T02:04:48;2.40;57.80
16521;DHT22;8373;48.110;11.522;2023-02-10T02:07:18;2.40;57.90
16521;DHT22;8373;48.110;11.522;2023-02-10T02:09:45;2.50;58.00
16521;DHT22;8373;48.110;11.522;2023-02-10T02:12:19;2.40;57.70
16521;DHT22;8373;48.110;11.522;2023-02-10T02:14:56;2.40;57.90
16521;DHT22;8373;48.110;11.522;2023-02-10T02:17:28;2.40;58.10
16521;DHT22;8373;48.110;11.522;2023-02-10T02:20:29;2.30;57.90
16521;DHT22;8373;48.110;11.522;2023-02-10T02:23:30;2.30;58.00
16521;DHT22;8373;48.110;11.522;2023-02-10T02:26:27;2.30;58.00
16521;DHT22;8373;48.110;11.522;2023-02-10T02:29:07;2.30;57.90
16521;DHT22;8373;48.110;11.522;2023-02-10T02:31:48;2.20;57.80
16521;DHT22;8373;48.110;11.522;2023-02-10T02:34:22;2.20;58.00
16521;DHT22;8373;48.110;11.522;2023-02-10T02:36:56;2.20;58.00
16521;DHT22;8373;48.110;11.522;2023-02-10T02:39:24;2.30;57.80
16521;DHT22;8373;48.110;11.522;2023-02-10T02:42:06;2.30;57.60
16521;DHT22;8373;48.110;11.522;2023-02-10T02:44:38;2.20;57.60
16521;DHT22;8373;48.110;11.522;2023-02-10T02:47:12;2.00;57.70
16521;DHT22;8373;48.110;11.522;2023-02-10T02:49:46;2.00;58.20
16521;DHT22;8373;48.110;11.522;2023-02-10T02:52:20;2.00;58.40
16521;DHT22;8373;48.110;11.522;2023-02-10T02:54:53;2.00;58.40
16521;DHT22;8373;48.110;11.522;2023-02-10T02:57:30;2.10;58.40
16521;DHT22;8373;48.110;11.522;2023-02-10T03:00:04;2.20;58.10
16521;DHT22;8373;48.110;11.522;2023-02-10T03:02:34;2.20;57.90
16521;DHT22;8373;48.110;11.522;2023-02-10T03:05:02;2.30;57.70
16521;DHT22;8373;48.110;11.522;2023-02-10T03:07:29;2.30;57.70
16521;DHT22;8373;48.110;11.522;2023-02-10T03:09:56;2.30;57.30
16521;DHT22;8373;48.110;11.522;2023-02-10T03:12:23;2.20;57.10
16521;DHT22;8373;48.110;11.522;2023-02-10T03:14:50;2.30;57.30
16521;DHT22;8373;48.110;11.522;2023-02-10T03:17:17;2.30;57.30
16521;DHT22;8373;48.110;11.522;2023-02-10T03:19:45;2.40;57.10
16521;DHT22;8373;48.110;11.522;2023-02-10T03:22:12;2.30;57.00
16521;DHT22;8373;48.110;11.522;2023-02-10T03:24:39;2.30;57.60
16521;DHT22;8373;48.110;11.522;2023-02-10T03:27:06;2.30;57.00
16521;DHT22;8373;48.110;11.522;2023-02-10T03:29:33;2.30;57.00
16521;DHT22;8373;48.110;11.522;2023-02-10T03:32:00;2.30;57.00
16521;DHT22;8373;48.110;11.522;2023-02-10T03:34:29;2.20;56.90
16521;DHT22;8373;48.110;11.522;2023-02-10T03:36:57;2.30;57.00
16521;DHT22;8373;48.110;11.522;2023-02-10T03:39:24;2.30;57.00
16521;DHT22;8373;48.110;11.522;2023-02-10T03:41:51;2.30;57.00
16521;DHT22;8373;48.110;11.522;2023-02-10T03:44:18;2.30;57.00
16521;DHT22;8373;48.110;11.522;2023-02-10T03:46:45;2.30;56.80
16521;DHT22;8373;48.110;11.522;2023-02-10T03:49:12;2.20;56.70
16521;DHT22;8373;48.110;11.522;2023-02-10T03:51:39;2.20;56.90
16521;DHT22;8373;48.110;11.522;2023-02-10T03:54:08;2.20;56.90
16521;DHT22;8373;48.110;11.522;2023-02-10T03:56:35;2.20;57.50
16521;DHT22;8373;48.110;11.522;2023-02-10T03:59:02;2.20;56.90
16521;DHT22;8373;48.110;11.522;2023-02-10T04:01:29;2.10;56.80
16521;DHT22;8373;48.110;11.522;2023-02-10T04:03:56;2.10;56.80
16521;DHT22;8373;48.110;11.522;2023-02-10T04:06:23;2.00;56.70
16521;DHT22;8373;48.110;11.522;2023-02-10T04:08:50;1.90;57.20
16521;DHT22;8373;48.110;11.522;2023-02-10T04:11:18;1.80;57.30
16521;DHT22;8373;48.110;11.522;2023-02-10T04:13:45;1.80;57.60
16521;DHT22;8373;48.110;11.522;2023-02-10T04:16:14;1.80;57.70
16521;DHT22;8373;48.110;11.522;2023-02-10T04:18:42;1.60;57.60
16521;DHT22;8373;48.110;11.522;2023-02-10T04:21:11;1.50;58.00
16521;DHT22;8373;48.110;11.522;2023-02-10T04:23:38;1.40;58.50
16521;DHT22;8373;48.110;11.522;2023-02-10T04:26:05;1.50;58.90
16521;DHT22;8373;48.110;11.522;2023-02-10T04:28:34;1.50;59.00
16521;DHT22;8373;48.110;11.522;2023-02-10T04:31:01;1.50;58.80
16521;DHT22;8373;48.110;11.522;2023-02-10T04:33:28;1.50;58.80
16521;DHT22;8373;48.110;11.522;2023-02-10T04:35:55;1.30;58.70
16521;DHT22;8373;48.110;11.522;2023-02-10T04:38:23;1.10;59.10
16521;DHT22;8373;48.110;11.522;2023-02-10T04:40:51;1.20;59.80
16521;DHT22;8373;48.110;11.522;2023-02-10T04:43:17;1.30;59.60
16521;DHT22;8373;48.110;11.522;2023-02-10T04:45:46;1.40;59.40
16521;DHT22;8373;48.110;11.522;2023-02-10T04:48:13;1.40;59.20
16521;DHT22;8373;48.110;11.522;2023-02-10T04:50:40;1.40;59.10
16521;DHT22;8373;48.110;11.522;2023-02-10T04:53:08;1.40;59.10
16521;DHT22;8373;48.110;11.522;2023-02-10T04:55:35;1.50;58.90
16521;DHT22;8373;48.110;11.522;2023-02-10T04:58:02;1.50;58.70
16521;DHT22;8373;48.110;11.522;2023-02-10T05:00:29;1.50;58.50
16521;DHT22;8373;48.110;11.522;2023-02-10T05:02:57;1.50;58.50
16521;DHT22;8373;48.110;11.522;2023-02-10T05:05:24;1.50;58.50
16521;DHT22;8373;48.110;11.522;2023-02-10T05:07:51;1.50;58.30
16521;DHT22;8373;48.110;11.522;2023-02-10T05:10:18;1.50;58.20
16521;DHT22;8373;48.110;11.522;2023-02-10T05:12:45;1.50;58.20
16521;DHT22;8373;48.110;11.522;2023-02-10T05:15:12;1.50;58.10
16521;DHT22;8373;48.110;11.522;2023-02-10T05:17:39;1.60;58.10
16521;DHT22;8373;48.110;11.522;2023-02-10T05:20:09;1.60;57.90
16521;DHT22;8373;48.110;11.522;2023-02-10T05:22:36;1.60;57.70
16521;DHT22;8373;48.110;11.522;2023-02-10T05:25:04;1.50;57.70
16521;DHT22;8373;48.110;11.522;2023-02-10T05:27:31;1.50;57.80
16521;DHT22;8373;48.110;11.522;2023-02-10T05:29:58;1.50;57.90
16521;DHT22;8373;48.110;11.522;2023-02-10T05:32:25;1.50;57.90
16521;DHT22;8373;48.110;11.522;2023-02-10T05:34:51;1.50;58.00
16521;DHT22;8373;48.110;11.522;2023-02-10T05:37:20;1.50;57.90
16521;DHT22;8373;48.110;11.522;2023-02-10T05:39:47;1.50;57.90
16521;DHT22;8373;48.110;11.522;2023-02-10T05:42:14;1.50;58.00
16521;DHT22;8373;48.110;11.522;2023-02-10T05:44:41;1.60;58.30
16521;DHT22;8373;48.110;11.522;2023-02-10T05:47:08;1.40;57.70
16521;DHT22;8373;48.110;11.522;2023-02-10T05:49:35;1.40;58.00
16521;DHT22;8373;48.110;11.522;2023-02-10T05:52:02;1.30;58.30
16521;DHT22;8373;48.110;11.522;2023-02-10T05:54:31;1.30;58.50
16521;DHT22;8373;48.110;11.522;2023-02-10T05:56:57;1.30;58.60
16521;DHT22;8373;48.110;11.522;2023-02-10T05:59:25;1.30;58.60
16521;DHT22;8373;48.110;11.522;2023-02-10T06:01:52;1.30;58.80
16521;DHT22;8373;48.110;11.522;2023-02-10T06:04:18;1.20;58.60
16521;DHT22;8373;48.110;11.522;2023-02-10T06:06:45;1.10;58.70
16521;DHT22;8373;48.110;11.522;2023-02-10T06:09:13;1.20;58.90
16521;DHT22;8373;48.110;11.522;2023-02-10T06:11:41;1.20;59.10
16521;DHT22;8373;48.110;11.522;2023-02-10T06:14:08;1.30;59.00
16521;DHT22;8373;48.110;11.522;2023-02-10T06:16:35;1.40;58.80
16521;DHT22;8373;48.110;11.522;2023-02-10T06:19:02;1.40;58.50
16521;DHT22;8373;48.110;11.522;2023-02-10T06:21:29;1.30;58.40
16521;DHT22;8373;48.110;11.522;2023-02-10T06:23:56;1.30;58.40
16521;DHT22;8373;48.110;11.522;2023-02-10T06:26:23;1.20;58.40
16521;DHT22;8373;48.110;11.522;2023-02-10T06:28:53;0.90;58.50
16521;DHT22;8373;48.110;11.522;2023-02-10T06:31:20;0.70;59.10
16521;DHT22;8373;48.110;11.522;2023-02-10T06:33:47;0.70;59.90
16521;DHT22;8373;48.110;11.522;2023-02-10T06:36:14;0.80;60.50
16521;DHT22;8373;48.110;11.522;2023-02-10T06:38:41;0.80;60.10
16521;DHT22;8373;48.110;11.522;2023-02-10T06:41:08;0.80;59.60
16521;DHT22;8373;48.110;11.522;2023-02-10T06:43:35;0.80;59.80
16521;DHT22;8373;48.110;11.522;2023-02-10T06:46:04;0.90;60.00
16521;DHT22;8373;48.110;11.522;2023-02-10T06:48:31;0.70;59.70
16521;DHT22;8373;48.110;11.522;2023-02-10T06:50:58;0.70;60.00
16521;DHT22;8373;48.110;11.522;2023-02-10T06:53:25;0.60;60.20
16521;DHT22;8373;48.110;11.522;2023-02-10T06:55:55;0.50;60.50
16521;DHT22;8373;48.110;11.522;2023-02-10T06:58:22;0.50;60.70
16521;DHT22;8373;48.110;11.522;2023-02-10T07:00:49;0.50;60.70
16521;DHT22;8373;48.110;11.522;2023-02-10T07:03:17;0.40;60.80
16521;DHT22;8373;48.110;11.522;2023-02-10T07:05:44;0.50;61.30
16521;DHT22;8373;48.110;11.522;2023-02-10T07:08:11;0.50;60.90
16521;DHT22;8373;48.110;11.522;2023-02-10T07:14:10;0.50;60.90
16521;DHT22;8373;48.110;11.522;2023-02-10T07:16:37;0.50;61.00
16521;DHT22;8373;48.110;11.522;2023-02-10T07:19:05;0.60;61.10
16521;DHT22;8373;48.110;11.522;2023-02-10T07:21:32;0.60;60.70
16521;DHT22;8373;48.110;11.522;2023-02-10T07:23:59;0.60;60.70
16521;DHT22;8373;48.110;11.522;2023-02-10T07:26:27;0.80;61.00
16521;DHT22;8373;48.110;11.522;2023-02-10T07:28:54;0.90;60.80
16521;DHT22;8373;48.110;11.522;2023-02-10T07:31:21;1.10;60.50
16521;DHT22;8373;48.110;11.522;2023-02-10T07:33:48;1.20;59.70
16521;DHT22;8373;48.110;11.522;2023-02-10T07:36:16;1.20;59.40
16521;DHT22;8373;48.110;11.522;2023-02-10T07:38:43;1.40;59.20
16521;DHT22;8373;48.110;11.522;2023-02-10T07:41:10;1.30;58.80
16521;DHT22;8373;48.110;11.522;2023-02-10T07:43:37;1.30;58.90
16521;DHT22;8373;48.110;11.522;2023-02-10T07:46:04;1.50;59.00
16521;DHT22;8373;48.110;11.522;2023-02-10T07:48:31;1.60;58.60
16521;DHT22;8373;48.110;11.522;2023-02-10T07:50:58;1.70;58.40
16521;DHT22;8373;48.110;11.522;2023-02-10T07:53:26;1.80;60.40
16521;DHT22;8373;48.110;11.522;2023-02-10T07:55:53;1.90;60.90
16521;DHT22;8373;48.110;11.522;2023-02-10T07:58:20;2.00;60.40
16521;DHT22;8373;48.110;11.522;2023-02-10T08:00:48;2.10;59.50
16521;DHT22;8373;48.110;11.522;2023-02-10T08:03:15;2.20;58.80
16521;DHT22;8373;48.110;11.522;2023-02-10T08:05:42;2.50;58.00
16521;DHT22;8373;48.110;11.522;2023-02-10T08:08:09;2.60;56.90
16521;DHT22;8373;48.110;11.522;2023-02-10T08:10:38;2.80;56.40
16521;DHT22;8373;48.110;11.522;2023-02-10T08:13:05;3.00;55.70
16521;DHT22;8373;48.110;11.522;2023-02-10T08:15:32;3.30;55.20
16521;DHT22;8373;48.110;11.522;2023-02-10T08:18:00;3.40;54.40
16521;DHT22;8373;48.110;11.522;2023-02-10T08:20:27;3.70;54.20
16521;DHT22;8373;48.110;11.522;2023-02-10T08:22:54;4.10;53.60
16521;DHT22;8373;48.110;11.522;2023-02-10T08:25:21;4.70;53.20
16521;DHT22;8373;48.110;11.522;2023-02-10T08:27:50;5.50;52.40
16521;DHT22;8373;48.110;11.522;2023-02-10T08:30:18;6.70;50.00
16521;DHT22;8373;48.110;11.522;2023-02-10T08:32:45;7.80;47.40
16521;DHT22;8373;48.110;11.522;2023-02-10T08:35:12;8.60;44.60
16521;DHT22;8373;48.110;11.522;2023-02-10T08:37:39;9.70;42.50
16521;DHT22;8373;48.110;11.522;2023-02-10T08:40:06;10.70;39.60
16521;DHT22;8373;48.110;11.522;2023-02-10T08:42:34;11.20;36.80
16521;DHT22;8373;48.110;11.522;2023-02-10T08:45:03;11.50;36.20
16521;DHT22;8373;48.110;11.522;2023-02-10T08:47:30;11.70;35.10
16521;DHT22;8373;48.110;11.522;2023-02-10T08:49:57;11.70;34.50
16521;DHT22;8373;48.110;11.522;2023-02-10T08:52:24;12.00;34.40
16521;DHT22;8373;48.110;11.522;2023-02-10T08:54:51;12.30;33.70
16521;DHT22;8373;48.110;11.522;2023-02-10T08:57:18;12.40;33.30
16521;DHT22;8373;48.110;11.522;2023-02-10T08:59:45;12.70;32.90
16521;DHT22;8373;48.110;11.522;2023-02-10T09:02:14;13.40;32.60
16521;DHT22;8373;48.110;11.522;2023-02-10T09:04:41;13.80;31.70
16521;DHT22;8373;48.110;11.522;2023-02-10T09:07:08;15.00;31.10
16521;DHT22;8373;48.110;11.522;2023-02-10T09:09:38;15.90;29.50
16521;DHT22;8373;48.110;11.522;2023-02-10T09:12:06;17.00;28.90
16521;DHT22;8373;48.110;11.522;2023-02-10T09:14:35;18.00;27.30
16521;DHT22;8373;48.110;11.522;2023-02-10T09:17:02;18.40;26.30
16521;DHT22;8373;48.110;11.522;2023-02-10T09:19:30;19.50;26.00
16521;DHT22;8373;48.110;11.522;2023-02-10T09:21:57;20.30;24.70
16521;DHT22;8373;48.110;11.522;2023-02-10T09:24:24;20.50;24.10
16521;DHT22;8373;48.110;11.522;2023-02-10T09:26:51;21.20;23.80
16521;DHT22;8373;48.110;11.522;2023-02-10T09:29:18;21.90;23.20
16521;DHT22;8373;48.110;11.522;2023-02-10T09:31:45;22.40;22.60
16521;DHT22;8373;48.110;11.522;2023-02-10T09:34:12;23.00;22.40
16521;DHT22;8373;48.110;11.522;2023-02-10T09:36:41;23.60;22.00
16521;DHT22;8373;48.110;11.522;2023-02-10T09:39:08;24.00;21.10
16521;DHT22;8373;48.110;11.522;2023-02-10T09:41:45;24.80;21.00
16521;DHT22;8373;48.110;11.522;2023-02-10T09:44:19;25.30;20.40
16521;DHT22;8373;48.110;11.522;2023-02-10T09:46:55;25.30;20.20
16521;DHT22;8373;48.110;11.522;2023-02-10T09:49:41;25.30;19.80
16521;DHT22;8373;48.110;11.522;2023-02-10T09:52:17;25.30;19.80
16521;DHT22;8373;48.110;11.522;2023-02-10T09:54:47;25.70;19.60
16521;DHT22;8373;48.110;11.522;2023-02-10T09:57:18;25.80;19.40
16521;DHT22;8373;48.110;11.522;2023-02-10T09:59:49;25.70;19.10
16521;DHT22;8373;48.110;11.522;2023-02-10T10:02:21;25.80;19.30
16521;DHT22;8373;48.110;11.522;2023-02-10T10:04:49;25.70;19.20
16521;DHT22;8373;48.110;11.522;2023-02-10T10:07:23;26.20;19.10
16521;DHT22;8373;48.110;11.522;2023-02-10T10:09:59;27.00;18.60
16521;DHT22;8373;48.110;11.522;2023-02-10T10:12:28;27.40;18.30
16521;DHT22;8373;48.110;11.522;2023-02-10T10:14:55;27.40;17.90
16521;DHT22;8373;48.110;11.522;2023-02-10T10:17:37;27.20;17.90
16521;DHT22;8373;48.110;11.522;2023-02-10T10:20:28;27.60;17.90
16521;DHT22;8373;48.110;11.522;2023-02-10T10:23:19;28.10;17.70
16521;DHT22;8373;48.110;11.522;2023-02-10T10:25:57;29.10;17.30
16521;DHT22;8373;48.110;11.522;2023-02-10T10:28:42;28.40;16.70
16521;DHT22;8373;48.110;11.522;2023-02-10T10:36:46;29.00;17.30
16521;DHT22;8373;48.110;11.522;2023-02-10T10:44:48;30.30;16.00
16521;DHT22;8373;48.110;11.522;2023-02-10T10:47:20;29.80;16.00
16521;DHT22;8373;48.110;11.522;2023-02-10T10:49:48;29.60;16.10
16521;DHT22;8373;48.110;11.522;2023-02-10T10:52:25;30.10;16.20
16521;DHT22;8373;48.110;11.522;2023-02-10T11:21:35;29.80;15.30
16521;DHT22;8373;48.110;11.522;2023-02-10T11:24:03;29.40;15.60
16521;DHT22;8373;48.110;11.522;2023-02-10T11:26:42;29.50;15.60
16521;DHT22;8373;48.110;11.522;2023-02-10T11:29:19;29.80;15.70
16521;DHT22;8373;48.110;11.522;2023-02-10T11:31:46;30.00;15.60
16521;DHT22;8373;48.110;11.522;2023-02-10T11:34:20;29.70;15.40
16521;DHT22;8373;48.110;11.522;2023-02-10T11:36:50;29.60;15.50
16521;DHT22;8373;48.110;11.522;2023-02-10T11:39:20;28.80;15.40
16521;DHT22;8373;48.110;11.522;2023-02-10T11:41:49;27.60;16.20
16521;DHT22;8373;48.110;11.522;2023-02-10T11:44:26;27.90;16.80
16521;DHT22;8373;48.110;11.522;2023-02-10T11:46:58;28.70;16.80
16521;DHT22;8373;48.110;11.522;2023-02-10T11:49:26;28.60;16.20
16521;DHT22;8373;48.110;11.522;2023-02-10T11:52:00;28.50;16.10
16521;DHT22;8373;48.110;11.522;2023-02-10T11:54:28;27.90;17.00
16521;DHT22;8373;48.110;11.522;2023-02-10T11:57:09;27.90;16.50
16521;DHT22;8373;48.110;11.522;2023-02-10T12:00:05;28.00;16.30
16521;DHT22;8373;48.110;11.522;2023-02-10T12:02:50;28.80;16.30
16521;DHT22;8373;48.110;11.522;2023-02-10T12:05:28;28.60;16.40
16521;DHT22;8373;48.110;11.522;2023-02-10T12:08:08;27.80;16.30
16521;DHT22;8373;48.110;11.522;2023-02-10T12:10:40;26.90;16.80
16521;DHT22;8373;48.110;11.522;2023-02-10T12:13:18;26.80;17.40
16521;DHT22;8373;48.110;11.522;2023-02-10T12:15:55;27.20;17.30
16521;DHT22;8373;48.110;11.522;2023-02-10T12:18:37;27.00;17.30
16521;DHT22;8373;48.110;11.522;2023-02-10T12:21:16;27.10;17.90
16521;DHT22;8373;48.110;11.522;2023-02-10T12:23:57;26.70;17.90
16521;DHT22;8373;48.110;11.522;2023-02-10T12:26:30;26.60;18.00
16521;DHT22;8373;48.110;11.522;2023-02-10T12:29:12;26.30;18.00
16521;DHT22;8373;48.110;11.522;2023-02-10T12:31:47;25.30;18.10
16521;DHT22;8373;48.110;11.522;2023-02-10T12:34:41;24.40;18.70
16521;DHT22;8373;48.110;11.522;2023-02-10T12:37:20;23.90;23.60
16521;DHT22;8373;48.110;11.522;2023-02-10T12:39:59;23.40;21.80
16521;DHT22;8373;48.110;11.522;2023-02-10T12:42:38;22.60;22.80
16521;DHT22;8373;48.110;11.522;2023-02-10T12:45:19;22.00;21.20
16521;DHT22;8373;48.110;11.522;2023-02-10T12:47:54;21.10;21.70
16521;DHT22;8373;48.110;11.522;2023-02-10T12:50:35;20.40;22.50
16521;DHT22;8373;48.110;11.522;2023-02-10T12:53:09;19.80;24.00
16521;DHT22;8373;48.110;11.522;2023-02-10T12:55:46;19.10;23.40
16521;DHT22;8373;48.110;11.522;2023-02-10T12:58:18;18.60;24.20
16521;DHT22;8373;48.110;11.522;2023-02-10T13:00:51;18.20;24.40
16521;DHT22;8373;48.110;11.522;2023-02-10T13:03:25;17.80;24.60
16521;DHT22;8373;48.110;11.522;2023-02-10T13:05:59;17.50;25.40
16521;DHT22;8373;48.110;11.522;2023-02-10T13:08:32;17.10;24.80
16521;DHT22;8373;48.110;11.522;2023-02-10T13:11:07;16.90;25.20
16521;DHT22;8373;48.110;11.522;2023-02-10T13:13:38;16.70;25.10
16521;DHT22;8373;48.110;11.522;2023-02-10T13:16:10;16.30;25.60
16521;DHT22;8373;48.110;11.522;2023-02-10T13:18:43;16.10;26.30
16521;DHT22;8373;48.110;11.522;2023-02-10T13:21:17;15.90;26.90
16521;DHT22;8373;48.110;11.522;2023-02-10T13:23:48;15.70;27.40
16521;DHT22;8373;48.110;11.522;2023-02-10T13:26:37;15.50;27.10
16521;DHT22;8373;48.110;11.522;2023-02-10T13:29:12;15.40;27.20
16521;DHT22;8373;48.110;11.522;2023-02-10T13:32:08;15.20;27.10
16521;DHT22;8373;48.110;11.522;2023-02-10T13:34:41;14.80;27.40
16521;DHT22;8373;48.110;11.522;2023-02-10T13:37:13;14.80;27.80
16521;DHT22;8373;48.110;11.522;2023-02-10T13:39:50;14.60;28.40
16521;DHT22;8373;48.110;11.522;2023-02-10T13:42:24;14.60;27.60
16521;DHT22;8373;48.110;11.522;2023-02-10T13:45:00;14.60;27.70
16521;DHT22;8373;48.110;11.522;2023-02-10T13:47:32;14.60;28.10
16521;DHT22;8373;48.110;11.522;2023-02-10T13:50:04;14.60;28.50
16521;DHT22;8373;48.110;11.522;2023-02-10T13:52:34;14.60;28.50
16521;DHT22;8373;48.110;11.522;2023-02-10T13:57:56;14.20;28.30
16521;DHT22;8373;48.110;11.522;2023-02-10T14:00:25;14.00;28.80
16521;DHT22;8373;48.110;11.522;2023-02-10T14:03:00;13.80;29.10
16521;DHT22;8373;48.110;11.522;2023-02-10T14:05:29;13.60;29.30
16521;DHT22;8373;48.110;11.522;2023-02-10T14:07:56;13.40;29.80
16521;DHT22;8373;48.110;11.522;2023-02-10T14:10:31;13.30;29.80
16521;DHT22;8373;48.110;11.522;2023-02-10T14:13:02;13.10;30.10
16521;DHT22;8373;48.110;11.522;2023-02-10T14:15:31;12.80;30.30
16521;DHT22;8373;48.110;11.522;2023-02-10T14:18:02;12.70;30.70
16521;DHT22;8373;48.110;11.522;2023-02-10T14:20:35;12.70;31.20
16521;DHT22;8373;48.110;11.522;2023-02-10T14:23:05;12.60;31.40
16521;DHT22;8373;48.110;11.522;2023-02-10T14:25:37;12.60;31.70
16521;DHT22;8373;48.110;11.522;2023-02-10T14:28:15;12.60;31.70
16521;DHT22;8373;48.110;11.522;2023-02-10T14:30:45;12.50;31.60
16521;DHT22;8373;48.110;11.522;2023-02-10T14:33:20;12.50;31.60
16521;DHT22;8373;48.110;11.522;2023-02-10T14:35:52;12.50;31.80
16521;DHT22;8373;48.110;11.522;2023-02-10T14:38:24;12.40;31.90
16521;DHT22;8373;48.110;11.522;2023-02-10T14:40:53;12.30;32.20
16521;DHT22;8373;48.110;11.522;2023-02-10T14:43:27;12.10;32.40
16521;DHT22;8373;48.110;11.522;2023-02-10T14:45:57;12.10;32.50
16521;DHT22;8373;48.110;11.522;2023-02-10T14:48:26;12.10;32.80
16521;DHT22;8373;48.110;11.522;2023-02-10T14:50:59;12.00;32.70
16521;DHT22;8373;48.110;11.522;2023-02-10T14:53:28;11.70;32.90
16521;DHT22;8373;48.110;11.522;2023-02-10T14:55:56;11.70;33.50
16521;DHT22;8373;48.110;11.522;2023-02-10T14:58:23;11.70;33.60
16521;DHT22;8373;48.110;11.522;2023-02-10T15:01:00;11.60;33.70
16521;DHT22;8373;48.110;11.522;2023-02-10T15:03:28;11.60;33.80
16521;DHT22;8373;48.110;11.522;2023-02-10T15:05:56;11.50;34.00
16521;DHT22;8373;48.110;11.522;2023-02-10T15:08:31;11.40;34.00
16521;DHT22;8373;48.110;11.522;2023-02-10T15:10:59;11.40;34.40
16521;DHT22;8373;48.110;11.522;2023-02-10T15:13:30;11.30;34.50
16521;DHT22;8373;48.110;11.522;2023-02-10T15:16:04;11.30;34.80
16521;DHT22;8373;48.110;11.522;2023-02-10T15:18:36;11.10;34.90
16521;DHT22;8373;48.110;11.522;2023-02-10T15:21:05;11.00;35.10
16521;DHT22;8373;48.110;11.522;2023-02-10T15:23:33;10.90;35.50
16521;DHT22;8373;48.110;11.522;2023-02-10T15:26:03;10.80;35.60
16521;DHT22;8373;48.110;11.522;2023-02-10T15:28:31;10.70;35.80
16521;DHT22;8373;48.110;11.522;2023-02-10T15:31:04;10.70;36.10
16521;DHT22;8373;48.110;11.522;2023-02-10T15:33:35;10.60;36.40
16521;DHT22;8373;48.110;11.522;2023-02-10T15:36:20;10.50;36.70
16521;DHT22;8373;48.110;11.522;2023-02-10T15:38:51;10.40;36.90
16521;DHT22;8373;48.110;11.522;2023-02-10T15:41:34;10.30;37.20
16521;DHT22;8373;48.110;11.522;2023-02-10T15:44:03;10.20;37.40
16521;DHT22;8373;48.110;11.522;2023-02-10T15:46:32;10.10;37.60
16521;DHT22;8373;48.110;11.522;2023-02-10T15:49:10;10.00;37.90
16521;DHT22;8373;48.110;11.522;2023-02-10T15:51:39;9.90;39.30
16521;DHT22;8373;48.110;11.522;2023-02-10T15:54:12;9.80;39.60
16521;DHT22;8373;48.110;11.522;2023-02-10T15:56:40;9.80;40.00
16521;DHT22;8373;48.110;11.522;2023-02-10T15:59:13;9.70;40.20
16521;DHT22;8373;48.110;11.522;2023-02-10T16:01:42;9.60;40.40
16521;DHT22;8373;48.110;11.522;2023-02-10T16:04:09;9.50;40.70
16521;DHT22;8373;48.110;11.522;2023-02-10T16:06:37;9.40;41.00
16521;DHT22;8373;48.110;11.522;2023-02-10T16:09:05;9.30;41.10
16521;DHT22;8373;48.110;11.522;2023-02-10T16:11:32;9.40;41.20
16521;DHT22;8373;48.110;11.522;2023-02-10T16:13:59;9.30;41.30
16521;DHT22;8373;48.110;11.522;2023-02-10T16:16:26;9.30;41.60
16521;DHT22;8373;48.110;11.522;2023-02-10T16:18:54;9.30;41.80
16521;DHT22;8373;48.110;11.522;2023-02-10T16:21:21;9.20;41.90
16521;DHT22;8373;48.110;11.522;2023-02-10T16:23:48;9.10;42.20
16521;DHT22;8373;48.110;11.522;2023-02-10T16:26:19;8.90;42.30
16521;DHT22;8373;48.110;11.522;2023-02-10T16:28:47;8.90;42.60
16521;DHT22;8373;48.110;11.522;2023-02-10T16:31:14;8.80;42.60
16521;DHT22;8373;48.110;11.522;2023-02-10T16:33:43;8.80;42.70
16521;DHT22;8373;48.110;11.522;2023-02-10T16:36:13;8.70;42.90
16521;DHT22;8373;48.110;11.522;2023-02-10T16:38:41;8.60;43.10
16521;DHT22;8373;48.110;11.522;2023-02-10T16:41:08;8.50;43.20
16521;DHT22;8373;48.110;11.522;2023-02-10T16:43:35;8.50;43.40
16521;DHT22;8373;48.110;11.522;2023-02-10T16:46:03;8.50;43.40